Ana Sayfa
METAR-TAF:

METAR-TAF

Havaalanları :

Niamey, Nijer

Enlem: 13-29N, Boylam: 002-10E, yükseklik: 223 m

Güncel hava durumu gözlemi

Rapor saat 05:00 UTC de 1 saat ve 13 dakika önce yapıldı.
Rüzgar kuzeydoğudan 6 kt
Sıcaklık 18°C
Nem 18%
Basınç 1013 hPa
Görüş mesafesi 10 km veya daha fazla
1500 m altında bulut yok ve kümülonimbus yok

METAR: DRRN 210500Z 05006KT CAVOK 18/M07 Q1013 NOSIG

Saat: 07:13 (06:13 UTC)

Tahmin

Rapor saat 05:00 UTC de 1 saat ve 13 dakika önce yapıldı.
Ayın 21'si saat 06 UTC'den ayın 22'si saat 12 UTC'ye kadar geçerli Tahmin
Rüzgar doğudan 10 kt
Görüş mesafesi: 8000 m
Geçici
ayın 21'si saat 06 UTC'den ayın 21'si saat 10 UTC'ye kadar
Görüş mesafesi: 4500 m
yaygın toz
Geçici
ayın 21'si saat 17 UTC'den ayın 21'si saat 20 UTC'ye kadar
Görüş mesafesi: 4000 m
yaygın toz

TAF: DRRN 210500Z 2106/2212 08010KT 8000 NSC TEMPO 2106/2110 4500 DU TEMPO 2117/2120 4000 DU

4.000'den fazla havaalanı için hava durumu gözlemleri ve tahminleri (METAR ve TAF raporları).

Kullanılabilir istasyonlar harita üzerinde sarı ve kırmızı noktalarla gösterilir.

İstasyonun adını görmek için fareyi noktanın üzerinde gezdirin.

Sonrasında hava gözlem ve tahminlerini görmek için tıklayın.

Haritayı değiştirmek için: yaklaştırmak için siyah artı işaretli yeşil düğmeye ve uzaklaştırmak için de eksi işaretli düğmeye hızla tıklayın; bitişik haritalar için yeşil okları kullanın.


METAR-TAF: